Greene, IA (50636)

7:34 AM CDT on March 29, 2015 (GMT -0500)
IADOT Plainfield | | Change Station
CLOSE
Current Station
Personal Weather Station
Location: Plainfield, IA
Elevation: 964 ft
Nearby Weather Stations
Active Advisory: Wind Advisory

Elev 964 ft 42.83 °N, 92.54 °W | Updated 34 minutes ago

Overcast
Overcast
33 °F
Feels Like 21 °F
N
22
Wind Variable Wind from South
Gusts 27.0 mph

Today
High -- | Low -- °F
--% Chance of Precip.
Yesterday
High -- | Low -- °F
Precip. -- in
6:58 AM 7:33 PM
Waxing Gibbous, 71% visible
Pressure 29.79 in
Visibility 10.0 miles
Clouds Mostly Cloudy 6000 ft
Mostly Cloudy 7500 ft
Overcast 9000 ft
Windchill 21 °F
Dew Point 29 °F
Humidity 86%
Rainfall in
Snow Depth Not available.
UV 0 out of 12
Pollen 7.30 out of 12
Air Quality Not available.
Flu Activity Not available.
METAR KCCY 291215Z AUTO 18018G25KT 10SM BKN060 BKN075 OVC090 00/M00 A2979 RMK AO2

More Conditions Fewer Conditions

Pressure 29.79 in
Visibility 10.0 miles
Clouds Mostly Cloudy 6000 ft
Mostly Cloudy 7500 ft
Overcast 9000 ft
Windchill 21 °F
Dew Point 29 °F
Humidity 86%
Rainfall in
Snow Depth Not available.
UV 0 out of 12
Pollen 7.30 out of 12
Air Quality Not available.
Flu Activity Not available.
METAR KCCY 291215Z AUTO 18018G25KT 10SM BKN060 BKN075 OVC090 00/M00 A2979 RMK AO2

More Conditions Fewer Conditions

10-Day Weather Forecast

Almanac

Astronomy

Mar. 29, 2015 Rise Set
Actual Time
Civil Twilight
Nautical Twilight
Astronomical Twilight
Moon
Length of Visible Light
Length of Day
Tomorrow will be .
, % of the Moon is Illuminated

Today's Extremes

State Highs State Lows

Community

WunderPhotos

Upload Photos

1,809,230 photos uploaded!

WunderBlogs® & News

Nearby

Air Quality

  Air Quality AQ Index Pollutant
Not available.

Snow Depth

Station Depth Elevation

Earthquake Activity

City Distance Mag. Time & Date
Minimum magnitude displayed is 2.5.

Coastal Water Temperatures

Place Temperature

Stations

Nearby Weather Stations

Station Location Temp. Windchill Dew Point Humidity Wind Precip. Elev Updated Type
                   
Wind Advisory
Statement as of 3:34 AM CDT on March 29, 2015

... Wind Advisory in effect from 10 am this morning to 6 PM CDT
this evening...

The National Weather Service in Des Moines has issued a Wind
Advisory... which is in effect from 10 am this morning to 6 PM CDT
this evening.

* Timing... winds will increase later this morning behind and cold
front with the strongest winds occurring early this afternoon.

* Winds... sustained northwest winds of 25 to 30 mph... with gusts
of up to 45 mph.

* Impacts... driving may be difficult at times... especially for
high profile and light weight vehicles. In addition...
unsecured outdoor objects will be blown around.

Precautionary/preparedness actions...

A Wind Advisory means that sustained winds of 30 mph are
expected. Winds this strong can make driving
difficult... especially for high profile vehicles. Use extra
caution.